sensor_id;sensor_type;location;lat;lon;timestamp;pressure;altitude;pressure_sealevel;temperature;humidity
58991;BME280;44781;53.444;14.476;2022-10-28T00:00:15;102181.79;;;11.35;93.63
58991;BME280;44781;53.444;14.476;2022-10-28T00:03:03;102175.86;;;11.49;94.16
58991;BME280;44781;53.444;14.476;2022-10-28T00:05:38;102172.65;;;11.62;94.61
58991;BME280;44781;53.444;14.476;2022-10-28T00:08:14;102172.50;;;11.74;95.02
58991;BME280;44781;53.444;14.476;2022-10-28T00:10:42;102173.58;;;11.86;95.23
58991;BME280;44781;53.444;14.476;2022-10-28T00:13:09;102172.94;;;11.97;95.55
58991;BME280;44781;53.444;14.476;2022-10-28T00:15:36;102174.44;;;12.08;95.63
58991;BME280;44781;53.444;14.476;2022-10-28T00:18:03;102164.44;;;12.18;95.67
58991;BME280;44781;53.444;14.476;2022-10-28T00:20:30;102165.09;;;12.27;95.92
58991;BME280;44781;53.444;14.476;2022-10-28T00:22:59;102165.45;;;12.36;95.76
58991;BME280;44781;53.444;14.476;2022-10-28T00:25:25;102167.13;;;12.47;95.93
58991;BME280;44781;53.444;14.476;2022-10-28T00:27:54;102167.99;;;12.55;95.93
58991;BME280;44781;53.444;14.476;2022-10-28T00:30:21;102164.16;;;12.63;95.72
58991;BME280;44781;53.444;14.476;2022-10-28T00:32:51;102160.55;;;12.70;95.65
58991;BME280;44781;53.444;14.476;2022-10-28T00:35:21;102151.92;;;12.74;95.47
58991;BME280;44781;53.444;14.476;2022-10-28T00:37:54;102146.11;;;12.79;95.11
58991;BME280;44781;53.444;14.476;2022-10-28T00:40:25;102142.42;;;12.84;94.96
58991;BME280;44781;53.444;14.476;2022-10-28T00:43:14;102140.90;;;12.89;94.89
58991;BME280;44781;53.444;14.476;2022-10-28T00:45:40;102141.34;;;12.93;94.66
58991;BME280;44781;53.444;14.476;2022-10-28T00:48:08;102140.46;;;12.95;94.66
58991;BME280;44781;53.444;14.476;2022-10-28T00:50:42;102139.98;;;12.97;94.39
58991;BME280;44781;53.444;14.476;2022-10-28T00:53:16;102141.79;;;13.00;94.11
58991;BME280;44781;53.444;14.476;2022-10-28T00:55:52;102136.67;;;13.02;93.90
58991;BME280;44781;53.444;14.476;2022-10-28T00:58:20;102130.65;;;13.05;93.64
58991;BME280;44781;53.444;14.476;2022-10-28T01:00:48;102128.35;;;13.07;93.63
58991;BME280;44781;53.444;14.476;2022-10-28T01:03:18;102125.62;;;13.09;93.46
58991;BME280;44781;53.444;14.476;2022-10-28T01:05:46;102131.60;;;13.09;93.38
58991;BME280;44781;53.444;14.476;2022-10-28T01:08:15;102136.25;;;13.09;93.07
58991;BME280;44781;53.444;14.476;2022-10-28T01:13:46;102133.44;;;13.11;92.72
58991;BME280;44781;53.444;14.476;2022-10-28T01:18:51;102133.72;;;13.12;92.23
58991;BME280;44781;53.444;14.476;2022-10-28T01:26:54;102119.27;;;13.08;92.07
58991;BME280;44781;53.444;14.476;2022-10-28T01:29:36;102115.87;;;13.09;91.96
58991;BME280;44781;53.444;14.476;2022-10-28T01:32:22;102107.89;;;13.08;91.92
58991;BME280;44781;53.444;14.476;2022-10-28T01:37:46;102099.05;;;13.08;91.75
58991;BME280;44781;53.444;14.476;2022-10-28T01:43:24;102092.36;;;13.04;91.38
58991;BME280;44781;53.444;14.476;2022-10-28T01:45:59;102092.64;;;13.02;91.33
58991;BME280;44781;53.444;14.476;2022-10-28T01:48:32;102092.96;;;13.03;91.31
58991;BME280;44781;53.444;14.476;2022-10-28T01:51:02;102094.34;;;13.03;91.34
58991;BME280;44781;53.444;14.476;2022-10-28T01:53:32;102097.45;;;13.05;91.52
58991;BME280;44781;53.444;14.476;2022-10-28T01:56:02;102097.52;;;13.03;91.13
58991;BME280;44781;53.444;14.476;2022-10-28T01:58:37;102098.21;;;13.01;90.93
58991;BME280;44781;53.444;14.476;2022-10-28T02:01:08;102095.52;;;12.99;90.83
58991;BME280;44781;53.444;14.476;2022-10-28T02:03:48;102093.03;;;12.97;90.73
58991;BME280;44781;53.444;14.476;2022-10-28T02:06:18;102094.54;;;12.95;90.57
58991;BME280;44781;53.444;14.476;2022-10-28T02:13:57;102087.35;;;12.89;90.11
58991;BME280;44781;53.444;14.476;2022-10-28T02:19:16;102078.58;;;12.79;89.39
58991;BME280;44781;53.444;14.476;2022-10-28T02:27:15;102068.78;;;12.66;88.40
58991;BME280;44781;53.444;14.476;2022-10-28T02:29:49;102063.02;;;12.62;88.32
58991;BME280;44781;53.444;14.476;2022-10-28T02:32:21;102057.84;;;12.56;88.08
58991;BME280;44781;53.444;14.476;2022-10-28T02:34:51;102061.45;;;12.50;87.59
58991;BME280;44781;53.444;14.476;2022-10-28T02:37:25;102057.38;;;12.41;87.20
58991;BME280;44781;53.444;14.476;2022-10-28T02:40:05;102055.45;;;12.33;86.98
58991;BME280;44781;53.444;14.476;2022-10-28T02:42:51;102049.21;;;12.25;86.65
58991;BME280;44781;53.444;14.476;2022-10-28T02:45:24;102049.80;;;12.18;86.23
58991;BME280;44781;53.444;14.476;2022-10-28T02:47:54;102043.08;;;12.12;86.18
58991;BME280;44781;53.444;14.476;2022-10-28T02:50:29;102046.30;;;12.06;85.84
58991;BME280;44781;53.444;14.476;2022-10-28T02:52:59;102047.39;;;12.00;86.07
58991;BME280;44781;53.444;14.476;2022-10-28T02:55:31;102053.10;;;11.93;85.96
58991;BME280;44781;53.444;14.476;2022-10-28T02:58:07;102048.65;;;11.84;85.68
58991;BME280;44781;53.444;14.476;2022-10-28T03:00:42;102048.69;;;11.75;85.21
58991;BME280;44781;53.444;14.476;2022-10-28T03:03:17;102047.90;;;11.68;84.68
58991;BME280;44781;53.444;14.476;2022-10-28T03:06:01;102053.18;;;11.59;84.81
58991;BME280;44781;53.444;14.476;2022-10-28T03:09:01;102057.86;;;11.52;84.90
58991;BME280;44781;53.444;14.476;2022-10-28T03:11:38;102058.84;;;11.44;84.73
58991;BME280;44781;53.444;14.476;2022-10-28T03:14:18;102056.20;;;11.38;84.47
58991;BME280;44781;53.444;14.476;2022-10-28T03:16:47;102051.90;;;11.30;84.18
58991;BME280;44781;53.444;14.476;2022-10-28T03:19:14;102051.55;;;11.21;84.00
58991;BME280;44781;53.444;14.476;2022-10-28T03:21:41;102051.22;;;11.11;83.92
58991;BME280;44781;53.444;14.476;2022-10-28T03:24:08;102053.36;;;11.02;83.69
58991;BME280;44781;53.444;14.476;2022-10-28T03:26:35;102051.48;;;10.94;83.65
58991;BME280;44781;53.444;14.476;2022-10-28T03:29:02;102051.13;;;10.88;83.58
58991;BME280;44781;53.444;14.476;2022-10-28T03:31:29;102051.07;;;10.83;83.62
58991;BME280;44781;53.444;14.476;2022-10-28T03:33:56;102058.58;;;10.78;83.50
58991;BME280;44781;53.444;14.476;2022-10-28T03:36:24;102062.19;;;10.74;83.53
58991;BME280;44781;53.444;14.476;2022-10-28T03:38:51;102062.02;;;10.70;83.89
58991;BME280;44781;53.444;14.476;2022-10-28T03:41:23;102057.12;;;10.66;84.45
58991;BME280;44781;53.444;14.476;2022-10-28T03:43:50;102067.75;;;10.62;84.43
58991;BME280;44781;53.444;14.476;2022-10-28T03:46:17;102074.46;;;10.59;84.45
58991;BME280;44781;53.444;14.476;2022-10-28T03:48:48;102067.63;;;10.58;84.98
58991;BME280;44781;53.444;14.476;2022-10-28T03:51:15;102055.80;;;10.58;85.44
58991;BME280;44781;53.444;14.476;2022-10-28T03:53:43;102057.52;;;10.59;85.96
58991;BME280;44781;53.444;14.476;2022-10-28T03:56:10;102054.62;;;10.60;86.80
58991;BME280;44781;53.444;14.476;2022-10-28T03:59:08;102054.86;;;10.62;87.66
58991;BME280;44781;53.444;14.476;2022-10-28T04:01:38;102049.18;;;10.66;88.35
58991;BME280;44781;53.444;14.476;2022-10-28T04:04:05;102041.09;;;10.72;88.80
58991;BME280;44781;53.444;14.476;2022-10-28T04:06:32;102038.61;;;10.78;89.28
58991;BME280;44781;53.444;14.476;2022-10-28T04:09:02;102033.23;;;10.86;89.94
58991;BME280;44781;53.444;14.476;2022-10-28T04:11:29;102027.56;;;10.92;90.33
58991;BME280;44781;53.444;14.476;2022-10-28T04:13:56;102028.38;;;10.99;90.72
58991;BME280;44781;53.444;14.476;2022-10-28T04:16:23;102025.30;;;11.07;91.02
58991;BME280;44781;53.444;14.476;2022-10-28T04:19:09;102021.41;;;11.16;91.57
58991;BME280;44781;53.444;14.476;2022-10-28T04:21:36;102021.52;;;11.26;92.16
58991;BME280;44781;53.444;14.476;2022-10-28T04:24:03;102018.45;;;11.36;92.48
58991;BME280;44781;53.444;14.476;2022-10-28T04:26:32;102015.64;;;11.45;92.90
58991;BME280;44781;53.444;14.476;2022-10-28T04:29:03;102012.02;;;11.52;93.16
58991;BME280;44781;53.444;14.476;2022-10-28T04:31:30;102010.88;;;11.59;93.12
58991;BME280;44781;53.444;14.476;2022-10-28T04:33:57;102007.44;;;11.67;93.20
58991;BME280;44781;53.444;14.476;2022-10-28T04:36:25;102005.77;;;11.73;93.27
58991;BME280;44781;53.444;14.476;2022-10-28T04:38:52;102012.63;;;11.80;93.38
58991;BME280;44781;53.444;14.476;2022-10-28T04:41:19;102009.95;;;11.86;93.29
58991;BME280;44781;53.444;14.476;2022-10-28T04:43:46;102008.48;;;11.90;93.07
58991;BME280;44781;53.444;14.476;2022-10-28T04:46:13;102014.52;;;11.93;93.08
58991;BME280;44781;53.444;14.476;2022-10-28T04:48:41;102010.08;;;11.96;92.95
58991;BME280;44781;53.444;14.476;2022-10-28T04:51:10;102013.89;;;12.00;92.80
58991;BME280;44781;53.444;14.476;2022-10-28T04:53:37;102021.10;;;12.04;92.74
58991;BME280;44781;53.444;14.476;2022-10-28T04:56:49;102019.59;;;12.08;92.75
58991;BME280;44781;53.444;14.476;2022-10-28T04:59:29;102019.84;;;12.07;92.50
58991;BME280;44781;53.444;14.476;2022-10-28T05:02:35;102009.89;;;12.02;92.05
58991;BME280;44781;53.444;14.476;2022-10-28T05:05:08;102014.25;;;12.09;91.80
58991;BME280;44781;53.444;14.476;2022-10-28T05:08:04;102017.30;;;12.08;91.62
58991;BME280;44781;53.444;14.476;2022-10-28T05:11:15;102013.06;;;12.08;91.55
58991;BME280;44781;53.444;14.476;2022-10-28T05:14:23;102012.13;;;12.06;91.39
58991;BME280;44781;53.444;14.476;2022-10-28T05:17:08;102014.75;;;12.04;90.86
58991;BME280;44781;53.444;14.476;2022-10-28T05:23:13;102019.97;;;11.91;89.64
58991;BME280;44781;53.444;14.476;2022-10-28T05:25:41;102010.36;;;11.88;89.27
58991;BME280;44781;53.444;14.476;2022-10-28T06:26:29;102001.31;;;11.12;87.76
58991;BME280;44781;53.444;14.476;2022-10-28T06:29:43;101987.38;;;11.11;87.99
58991;BME280;44781;53.444;14.476;2022-10-28T06:40:20;101988.89;;;11.22;90.68
58991;BME280;44781;53.444;14.476;2022-10-28T06:43:09;101986.79;;;11.30;91.44
58991;BME280;44781;53.444;14.476;2022-10-28T06:45:39;101995.67;;;11.38;91.94
58991;BME280;44781;53.444;14.476;2022-10-28T06:48:07;102001.98;;;11.45;92.41
58991;BME280;44781;53.444;14.476;2022-10-28T06:54:16;102005.27;;;11.64;93.20
58991;BME280;44781;53.444;14.476;2022-10-28T06:56:47;102000.21;;;11.74;93.76
58991;BME280;44781;53.444;14.476;2022-10-28T07:09:21;101997.55;;;12.20;94.84
58991;BME280;44781;53.444;14.476;2022-10-28T07:12:31;102000.39;;;12.35;95.01
58991;BME280;44781;53.444;14.476;2022-10-28T07:15:53;101999.23;;;12.47;94.93
58991;BME280;44781;53.444;14.476;2022-10-28T07:22:26;101995.39;;;12.69;94.96
58991;BME280;44781;53.444;14.476;2022-10-28T07:24:57;101999.42;;;12.77;94.98
58991;BME280;44781;53.444;14.476;2022-10-28T07:28:02;102002.55;;;12.86;94.98
58991;BME280;44781;53.444;14.476;2022-10-28T07:30:32;101998.88;;;12.93;94.98
58991;BME280;44781;53.444;14.476;2022-10-28T07:33:36;101997.67;;;13.01;95.00
58991;BME280;44781;53.444;14.476;2022-10-28T07:36:04;101999.39;;;13.08;94.86
58991;BME280;44781;53.444;14.476;2022-10-28T07:38:55;102002.46;;;13.14;95.08
58991;BME280;44781;53.444;14.476;2022-10-28T07:41:26;102006.23;;;13.22;94.98
58991;BME280;44781;53.444;14.476;2022-10-28T07:43:55;102005.25;;;13.29;95.23
58991;BME280;44781;53.444;14.476;2022-10-28T07:46:47;102005.79;;;13.36;95.20
58991;BME280;44781;53.444;14.476;2022-10-28T07:49:14;102005.00;;;13.43;95.38
58991;BME280;44781;53.444;14.476;2022-10-28T07:51:43;102007.87;;;13.50;95.17
58991;BME280;44781;53.444;14.476;2022-10-28T07:54:27;102009.79;;;13.58;95.17
58991;BME280;44781;53.444;14.476;2022-10-28T07:56:58;102017.38;;;13.67;95.16
58991;BME280;44781;53.444;14.476;2022-10-28T07:59:25;102019.11;;;13.75;95.18
58991;BME280;44781;53.444;14.476;2022-10-28T08:01:53;102014.77;;;13.82;95.12
58991;BME280;44781;53.444;14.476;2022-10-28T08:04:20;102014.59;;;13.87;95.09
58991;BME280;44781;53.444;14.476;2022-10-28T08:06:52;102016.72;;;13.92;94.99
58991;BME280;44781;53.444;14.476;2022-10-28T08:09:20;102021.59;;;13.98;94.93
58991;BME280;44781;53.444;14.476;2022-10-28T08:11:54;102026.83;;;14.05;95.04
58991;BME280;44781;53.444;14.476;2022-10-28T08:14:25;102032.70;;;14.12;95.09
58991;BME280;44781;53.444;14.476;2022-10-28T08:16:53;102030.10;;;14.14;94.99
58991;BME280;44781;53.444;14.476;2022-10-28T08:19:20;102049.96;;;14.24;95.09
58991;BME280;44781;53.444;14.476;2022-10-28T08:21:48;102055.16;;;14.29;94.88
58991;BME280;44781;53.444;14.476;2022-10-28T08:24:15;102055.69;;;14.34;94.66
58991;BME280;44781;53.444;14.476;2022-10-28T08:26:43;102062.20;;;14.40;94.82
58991;BME280;44781;53.444;14.476;2022-10-28T08:29:10;102068.17;;;14.46;94.92
58991;BME280;44781;53.444;14.476;2022-10-28T08:31:38;102066.46;;;14.52;94.68
58991;BME280;44781;53.444;14.476;2022-10-28T08:34:06;102059.31;;;14.58;94.65
58991;BME280;44781;53.444;14.476;2022-10-28T08:36:35;102054.71;;;14.63;94.55
58991;BME280;44781;53.444;14.476;2022-10-28T08:39:02;102054.74;;;14.67;94.32
58991;BME280;44781;53.444;14.476;2022-10-28T08:49:29;102058.38;;;14.90;94.15
58991;BME280;44781;53.444;14.476;2022-10-28T08:54:29;102047.77;;;15.02;93.96
58991;BME280;44781;53.444;14.476;2022-10-28T08:57:00;102043.11;;;15.07;93.85
58991;BME280;44781;53.444;14.476;2022-10-28T08:59:30;102038.86;;;15.11;93.70
58991;BME280;44781;53.444;14.476;2022-10-28T09:01:58;102035.45;;;15.16;93.56
58991;BME280;44781;53.444;14.476;2022-10-28T09:04:30;102035.36;;;15.22;93.57
58991;BME280;44781;53.444;14.476;2022-10-28T09:07:02;102021.40;;;15.28;93.22
58991;BME280;44781;53.444;14.476;2022-10-28T09:09:44;102024.09;;;15.32;93.10
58991;BME280;44781;53.444;14.476;2022-10-28T09:17:43;102005.77;;;15.42;92.15
58991;BME280;44781;53.444;14.476;2022-10-28T09:20:52;101994.98;;;15.45;91.75
58991;BME280;44781;53.444;14.476;2022-10-28T09:23:26;101992.70;;;15.49;91.69
58991;BME280;44781;53.444;14.476;2022-10-28T09:31:23;101977.61;;;15.55;91.42
58991;BME280;44781;53.444;14.476;2022-10-28T09:36:32;101989.27;;;15.61;91.48
58991;BME280;44781;53.444;14.476;2022-10-28T09:39:28;101989.30;;;15.68;91.54
58991;BME280;44781;53.444;14.476;2022-10-28T09:42:02;101978.02;;;15.76;91.71
58991;BME280;44781;53.444;14.476;2022-10-28T09:47:02;101964.58;;;15.90;91.41
58991;BME280;44781;53.444;14.476;2022-10-28T09:49:33;101965.08;;;15.96;90.95
58991;BME280;44781;53.444;14.476;2022-10-28T09:52:08;101965.80;;;16.00;90.38
58991;BME280;44781;53.444;14.476;2022-10-28T09:54:47;101960.88;;;16.03;89.92
58991;BME280;44781;53.444;14.476;2022-10-28T09:57:18;101962.02;;;16.07;89.77
58991;BME280;44781;53.444;14.476;2022-10-28T09:59:45;101965.58;;;16.11;89.76
58991;BME280;44781;53.444;14.476;2022-10-28T10:02:25;101969.27;;;16.16;89.41
58991;BME280;44781;53.444;14.476;2022-10-28T10:04:55;101966.54;;;16.22;89.19
58991;BME280;44781;53.444;14.476;2022-10-28T10:07:42;101968.63;;;16.27;89.30
58991;BME280;44781;53.444;14.476;2022-10-28T10:10:43;101970.73;;;16.31;89.14
58991;BME280;44781;53.444;14.476;2022-10-28T10:13:34;101970.51;;;16.34;88.64
58991;BME280;44781;53.444;14.476;2022-10-28T10:19:00;101970.24;;;16.40;88.64
58991;BME280;44781;53.444;14.476;2022-10-28T10:21:44;101979.65;;;16.45;88.28
58991;BME280;44781;53.444;14.476;2022-10-28T10:24:29;101983.79;;;16.50;88.32
58991;BME280;44781;53.444;14.476;2022-10-28T10:27:01;101979.83;;;16.58;88.09
58991;BME280;44781;53.444;14.476;2022-10-28T10:29:29;101974.12;;;16.64;87.86
58991;BME280;44781;53.444;14.476;2022-10-28T10:32:34;101972.83;;;16.71;87.87
58991;BME280;44781;53.444;14.476;2022-10-28T10:37:34;101977.90;;;16.81;87.61
58991;BME280;44781;53.444;14.476;2022-10-28T10:42:44;101971.07;;;16.88;87.26
58991;BME280;44781;53.444;14.476;2022-10-28T10:45:23;101967.98;;;16.93;87.12
58991;BME280;44781;53.444;14.476;2022-10-28T10:48:04;101966.77;;;16.99;87.05
58991;BME280;44781;53.444;14.476;2022-10-28T10:50:39;101959.81;;;17.08;87.11
58991;BME280;44781;53.444;14.476;2022-10-28T10:53:32;101959.14;;;17.20;87.30
58991;BME280;44781;53.444;14.476;2022-10-28T10:56:27;101959.48;;;17.35;87.45
58991;BME280;44781;53.444;14.476;2022-10-28T10:58:59;101953.94;;;17.49;87.44
58991;BME280;44781;53.444;14.476;2022-10-28T11:01:35;101943.37;;;17.64;87.51
58991;BME280;44781;53.444;14.476;2022-10-28T11:04:07;101936.89;;;17.79;87.35
58991;BME280;44781;53.444;14.476;2022-10-28T11:06:49;101934.85;;;17.92;86.60
58991;BME280;44781;53.444;14.476;2022-10-28T11:09:36;101931.98;;;18.02;86.12
58991;BME280;44781;53.444;14.476;2022-10-28T11:12:18;101928.78;;;18.12;85.50
58991;BME280;44781;53.444;14.476;2022-10-28T11:14:55;101922.18;;;18.20;84.89
58991;BME280;44781;53.444;14.476;2022-10-28T11:17:23;101910.80;;;18.25;84.39
58991;BME280;44781;53.444;14.476;2022-10-28T11:19:52;101899.60;;;18.28;83.79
58991;BME280;44781;53.444;14.476;2022-10-28T11:22:28;101897.30;;;18.30;83.13
58991;BME280;44781;53.444;14.476;2022-10-28T11:28:09;101896.14;;;18.35;82.67
58991;BME280;44781;53.444;14.476;2022-10-28T11:30:34;101896.06;;;18.38;82.86
58991;BME280;44781;53.444;14.476;2022-10-28T11:33:13;101896.17;;;18.41;82.50
58991;BME280;44781;53.444;14.476;2022-10-28T11:35:44;101898.02;;;18.43;82.34
58991;BME280;44781;53.444;14.476;2022-10-28T11:48:57;101890.58;;;18.53;80.80
58991;BME280;44781;53.444;14.476;2022-10-28T11:51:30;101883.55;;;18.55;80.47
58991;BME280;44781;53.444;14.476;2022-10-28T11:54:21;101882.39;;;18.60;80.34
58991;BME280;44781;53.444;14.476;2022-10-28T11:57:06;101869.17;;;18.66;79.88
58991;BME280;44781;53.444;14.476;2022-10-28T12:05:02;101859.44;;;18.86;79.53
58991;BME280;44781;53.444;14.476;2022-10-28T12:07:40;101856.01;;;18.92;79.50
58991;BME280;44781;53.444;14.476;2022-10-28T12:15:31;101842.50;;;19.12;79.21
58991;BME280;44781;53.444;14.476;2022-10-28T12:20:30;101840.92;;;19.30;78.89
58991;BME280;44781;53.444;14.476;2022-10-28T12:23:12;101839.98;;;19.40;78.58
58991;BME280;44781;53.444;14.476;2022-10-28T12:25:40;101840.45;;;19.48;78.22
58991;BME280;44781;53.444;14.476;2022-10-28T12:30:43;101826.34;;;19.68;77.76
58991;BME280;44781;53.444;14.476;2022-10-28T12:33:23;101820.88;;;19.78;77.55
58991;BME280;44781;53.444;14.476;2022-10-28T12:36:09;101812.81;;;19.85;77.03
58991;BME280;44781;53.444;14.476;2022-10-28T12:38:58;101815.50;;;19.98;76.45
58991;BME280;44781;53.444;14.476;2022-10-28T12:41:29;101813.17;;;20.05;75.69
58991;BME280;44781;53.444;14.476;2022-10-28T12:44:00;101819.54;;;20.08;75.01
58991;BME280;44781;53.444;14.476;2022-10-28T12:49:21;101821.16;;;20.10;74.45
58991;BME280;44781;53.444;14.476;2022-10-28T12:51:56;101816.35;;;20.09;74.05
58991;BME280;44781;53.444;14.476;2022-10-28T12:54:50;101809.64;;;20.04;73.63
58991;BME280;44781;53.444;14.476;2022-10-28T12:57:19;101810.07;;;20.07;73.88
58991;BME280;44781;53.444;14.476;2022-10-28T12:59:53;101803.58;;;20.06;73.84
58991;BME280;44781;53.444;14.476;2022-10-28T13:02:29;101801.89;;;20.07;73.81
58991;BME280;44781;53.444;14.476;2022-10-28T13:04:58;101801.34;;;20.11;73.89
58991;BME280;44781;53.444;14.476;2022-10-28T13:10:47;101798.79;;;20.27;74.06
58991;BME280;44781;53.444;14.476;2022-10-28T13:19:03;101790.17;;;20.68;73.33
58991;BME280;44781;53.444;14.476;2022-10-28T13:24:43;101783.23;;;21.00;72.22
58991;BME280;44781;53.444;14.476;2022-10-28T13:27:11;101773.17;;;21.14;71.77
58991;BME280;44781;53.444;14.476;2022-10-28T13:29:40;101768.89;;;21.26;71.23
58991;BME280;44781;53.444;14.476;2022-10-28T13:34:54;101760.39;;;21.45;70.50
58991;BME280;44781;53.444;14.476;2022-10-28T13:37:21;101761.63;;;21.54;70.43
58991;BME280;44781;53.444;14.476;2022-10-28T13:39:50;101757.73;;;21.61;70.09
58991;BME280;44781;53.444;14.476;2022-10-28T13:47:25;101751.71;;;21.69;69.04
58991;BME280;44781;53.444;14.476;2022-10-28T13:52:39;101749.67;;;21.76;68.70
58991;BME280;44781;53.444;14.476;2022-10-28T13:57:42;101764.05;;;21.91;68.30
58991;BME280;44781;53.444;14.476;2022-10-28T14:02:48;101759.23;;;21.96;68.09
58991;BME280;44781;53.444;14.476;2022-10-28T14:05:22;101762.58;;;21.98;67.89
58991;BME280;44781;53.444;14.476;2022-10-28T14:07:53;101763.77;;;22.00;67.92
58991;BME280;44781;53.444;14.476;2022-10-28T14:12:51;101761.10;;;22.03;68.02
58991;BME280;44781;53.444;14.476;2022-10-28T14:15:20;101761.70;;;22.04;68.04
58991;BME280;44781;53.444;14.476;2022-10-28T14:17:57;101760.89;;;22.05;67.97
58991;BME280;44781;53.444;14.476;2022-10-28T14:22:55;101758.10;;;22.07;67.66
58991;BME280;44781;53.444;14.476;2022-10-28T14:33:43;101750.16;;;22.03;67.33
58991;BME280;44781;53.444;14.476;2022-10-28T14:49:02;101745.79;;;21.72;67.02
58991;BME280;44781;53.444;14.476;2022-10-28T14:51:42;101751.42;;;21.65;67.28
58991;BME280;44781;53.444;14.476;2022-10-28T14:56:55;101745.34;;;21.50;67.30
58991;BME280;44781;53.444;14.476;2022-10-28T15:04:28;101736.80;;;21.21;67.26
58991;BME280;44781;53.444;14.476;2022-10-28T15:06:55;101736.20;;;21.12;67.47
58991;BME280;44781;53.444;14.476;2022-10-28T15:09:26;101738.92;;;21.03;67.42
58991;BME280;44781;53.444;14.476;2022-10-28T15:11:56;101736.52;;;20.94;67.61
58991;BME280;44781;53.444;14.476;2022-10-28T15:14:28;101738.52;;;20.85;67.74
58991;BME280;44781;53.444;14.476;2022-10-28T15:16:55;101735.59;;;20.75;67.73
58991;BME280;44781;53.444;14.476;2022-10-28T15:19:26;101739.50;;;20.65;67.82
58991;BME280;44781;53.444;14.476;2022-10-28T15:21:59;101741.42;;;20.55;67.88
58991;BME280;44781;53.444;14.476;2022-10-28T15:24:26;101742.42;;;20.45;67.92
58991;BME280;44781;53.444;14.476;2022-10-28T15:26:56;101746.06;;;20.36;68.28
58991;BME280;44781;53.444;14.476;2022-10-28T15:29:28;101746.73;;;20.26;68.45
58991;BME280;44781;53.444;14.476;2022-10-28T15:34:52;101745.40;;;20.07;68.84
58991;BME280;44781;53.444;14.476;2022-10-28T15:37:20;101741.05;;;20.00;68.92
58991;BME280;44781;53.444;14.476;2022-10-28T15:39:48;101742.12;;;19.95;69.18
58991;BME280;44781;53.444;14.476;2022-10-28T15:44:54;101746.67;;;19.83;69.32
58991;BME280;44781;53.444;14.476;2022-10-28T15:47:35;101748.52;;;19.76;69.44
58991;BME280;44781;53.444;14.476;2022-10-28T15:52:43;101741.08;;;19.55;69.87
58991;BME280;44781;53.444;14.476;2022-10-28T15:55:29;101741.52;;;19.43;70.09
58991;BME280;44781;53.444;14.476;2022-10-28T15:57:58;101740.41;;;19.28;70.33
58991;BME280;44781;53.444;14.476;2022-10-28T16:00:26;101738.41;;;19.16;70.65
58991;BME280;44781;53.444;14.476;2022-10-28T16:02:55;101736.52;;;19.02;70.92
58991;BME280;44781;53.444;14.476;2022-10-28T16:10:27;101739.90;;;18.70;71.68
58991;BME280;44781;53.444;14.476;2022-10-28T16:12:56;101738.11;;;18.62;71.89
58991;BME280;44781;53.444;14.476;2022-10-28T16:15:24;101736.73;;;18.55;71.57
58991;BME280;44781;53.444;14.476;2022-10-28T16:17:52;101734.46;;;18.46;71.24
58991;BME280;44781;53.444;14.476;2022-10-28T16:20:20;101734.50;;;18.38;71.12
58991;BME280;44781;53.444;14.476;2022-10-28T16:22:49;101735.38;;;18.29;71.43
58991;BME280;44781;53.444;14.476;2022-10-28T16:25:17;101735.10;;;18.19;71.84
58991;BME280;44781;53.444;14.476;2022-10-28T16:27:48;101737.64;;;18.08;71.44
58991;BME280;44781;53.444;14.476;2022-10-28T16:30:15;101734.05;;;17.97;71.27
58991;BME280;44781;53.444;14.476;2022-10-28T16:32:43;101740.83;;;17.85;71.04
58991;BME280;44781;53.444;14.476;2022-10-28T16:35:20;101739.24;;;17.71;70.68
58991;BME280;44781;53.444;14.476;2022-10-28T16:37:54;101737.58;;;17.54;70.42
58991;BME280;44781;53.444;14.476;2022-10-28T16:40:22;101736.45;;;17.38;70.49
58991;BME280;44781;53.444;14.476;2022-10-28T16:42:49;101738.54;;;17.23;70.64
58991;BME280;44781;53.444;14.476;2022-10-28T16:45:17;101736.29;;;17.08;70.77
58991;BME280;44781;53.444;14.476;2022-10-28T16:47:44;101736.05;;;16.92;70.57
58991;BME280;44781;53.444;14.476;2022-10-28T16:50:14;101736.45;;;16.77;70.70
58991;BME280;44781;53.444;14.476;2022-10-28T16:52:42;101736.45;;;16.63;70.66
58991;BME280;44781;53.444;14.476;2022-10-28T16:55:15;101729.90;;;16.48;70.86
58991;BME280;44781;53.444;14.476;2022-10-28T16:58:28;101726.75;;;16.30;71.01
58991;BME280;44781;53.444;14.476;2022-10-28T17:00:56;101713.67;;;16.10;71.25
58991;BME280;44781;53.444;14.476;2022-10-28T17:03:23;101726.14;;;16.08;71.41
58991;BME280;44781;53.444;14.476;2022-10-28T17:05:50;101724.66;;;15.98;71.55
58991;BME280;44781;53.444;14.476;2022-10-28T17:08:18;101724.19;;;15.89;71.59
58991;BME280;44781;53.444;14.476;2022-10-28T17:10:45;101724.48;;;15.81;71.58
58991;BME280;44781;53.444;14.476;2022-10-28T17:13:13;101721.80;;;15.72;71.67
58991;BME280;44781;53.444;14.476;2022-10-28T17:15:41;101724.86;;;15.63;71.88
58991;BME280;44781;53.444;14.476;2022-10-28T17:18:12;101726.54;;;15.53;72.48
58991;BME280;44781;53.444;14.476;2022-10-28T17:20:41;101723.99;;;15.43;72.51
58991;BME280;44781;53.444;14.476;2022-10-28T17:23:08;101726.56;;;15.33;72.68
58991;BME280;44781;53.444;14.476;2022-10-28T17:25:35;101725.78;;;15.23;72.89
58991;BME280;44781;53.444;14.476;2022-10-28T17:28:02;101727.05;;;15.14;73.26
58991;BME280;44781;53.444;14.476;2022-10-28T17:30:30;101728.10;;;15.05;73.39
58991;BME280;44781;53.444;14.476;2022-10-28T17:32:59;101729.40;;;14.98;73.71